Shields, North Dakota
Current Conditions -  °F | °C
As of 7:15 PM on Friday 24 Oct 2014 (Local Time) from KY19 Reporting Station
Clear Clear  
Wind Chill: 44°   Ceiling: Unl
Heat Index: 48°   Visibility: 10mi
Dew Point: 32°   Wind: 10mph
Humidity: 54%   Direction: 280°W
Pressure: 30"   Gusts: NA
Location:  46.23°N, 101.13°W
Report Text: KY19 250115Z AUTO 28009KT 10SM CLR 09/00 A3000 RMK AO2
Loading
Personal Weather Stations






























Interactive Weather Map
Tropical Storm Tracking
New forecast layout! Learn more

10-Day Weather Forecast

Advertisements
Track Severe Weather on mobile